sensor_id;sensor_type;location;lat;lon;timestamp;P1;durP1;ratioP1;P2;durP2;ratioP2
59263;SDS011;45030;42.720;23.344;2022-11-21T00:01:29;8.30;;;5.10;;
59263;SDS011;45030;42.720;23.344;2022-11-21T00:03:54;9.27;;;4.53;;
59263;SDS011;45030;42.720;23.344;2022-11-21T00:06:20;8.05;;;4.93;;
59263;SDS011;45030;42.720;23.344;2022-11-21T00:08:47;7.57;;;4.55;;
59263;SDS011;45030;42.720;23.344;2022-11-21T00:11:12;6.88;;;4.00;;
59263;SDS011;45030;42.720;23.344;2022-11-21T00:13:38;11.25;;;3.83;;
59263;SDS011;45030;42.720;23.344;2022-11-21T00:16:07;6.25;;;2.95;;
59263;SDS011;45030;42.720;23.344;2022-11-21T00:18:33;5.63;;;2.60;;
59263;SDS011;45030;42.720;23.344;2022-11-21T00:21:10;4.47;;;2.28;;
59263;SDS011;45030;42.720;23.344;2022-11-21T00:23:35;4.35;;;2.30;;
59263;SDS011;45030;42.720;23.344;2022-11-21T00:26:06;4.18;;;2.22;;
59263;SDS011;45030;42.720;23.344;2022-11-21T00:28:32;6.70;;;2.90;;
59263;SDS011;45030;42.720;23.344;2022-11-21T00:30:57;6.88;;;2.80;;
59263;SDS011;45030;42.720;23.344;2022-11-21T00:33:23;13.07;;;6.75;;
59263;SDS011;45030;42.720;23.344;2022-11-21T00:35:48;14.05;;;8.88;;
59263;SDS011;45030;42.720;23.344;2022-11-21T00:38:13;11.85;;;7.00;;
59263;SDS011;45030;42.720;23.344;2022-11-21T00:40:39;13.57;;;7.50;;
59263;SDS011;45030;42.720;23.344;2022-11-21T00:43:06;15.82;;;7.82;;
59263;SDS011;45030;42.720;23.344;2022-11-21T00:45:31;13.40;;;7.90;;
59263;SDS011;45030;42.720;23.344;2022-11-21T00:47:56;22.40;;;11.07;;
59263;SDS011;45030;42.720;23.344;2022-11-21T00:50:22;14.48;;;8.65;;
59263;SDS011;45030;42.720;23.344;2022-11-21T00:52:47;19.00;;;11.95;;
59263;SDS011;45030;42.720;23.344;2022-11-21T00:55:12;15.63;;;11.07;;
59263;SDS011;45030;42.720;23.344;2022-11-21T00:57:37;21.65;;;13.43;;
59263;SDS011;45030;42.720;23.344;2022-11-21T01:00:03;20.77;;;14.18;;
59263;SDS011;45030;42.720;23.344;2022-11-21T01:02:30;26.77;;;15.23;;
59263;SDS011;45030;42.720;23.344;2022-11-21T01:04:56;24.63;;;15.88;;
59263;SDS011;45030;42.720;23.344;2022-11-21T01:07:21;21.20;;;13.02;;
59263;SDS011;45030;42.720;23.344;2022-11-21T01:09:46;19.35;;;12.18;;
59263;SDS011;45030;42.720;23.344;2022-11-21T01:12:12;19.50;;;11.20;;
59263;SDS011;45030;42.720;23.344;2022-11-21T01:14:37;23.45;;;13.13;;
59263;SDS011;45030;42.720;23.344;2022-11-21T01:17:02;22.45;;;12.57;;
59263;SDS011;45030;42.720;23.344;2022-11-21T01:19:27;22.20;;;12.48;;
59263;SDS011;45030;42.720;23.344;2022-11-21T01:21:53;23.20;;;12.18;;
59263;SDS011;45030;42.720;23.344;2022-11-21T01:24:18;22.77;;;14.85;;
59263;SDS011;45030;42.720;23.344;2022-11-21T01:26:43;34.10;;;19.92;;
59263;SDS011;45030;42.720;23.344;2022-11-21T01:29:08;30.60;;;16.88;;
59263;SDS011;45030;42.720;23.344;2022-11-21T01:31:34;26.02;;;16.83;;
59263;SDS011;45030;42.720;23.344;2022-11-21T01:34:00;30.27;;;15.30;;
59263;SDS011;45030;42.720;23.344;2022-11-21T01:36:26;20.70;;;12.18;;
59263;SDS011;45030;42.720;23.344;2022-11-21T01:38:52;29.88;;;15.27;;
59263;SDS011;45030;42.720;23.344;2022-11-21T01:41:19;25.23;;;14.18;;
59263;SDS011;45030;42.720;23.344;2022-11-21T01:43:45;21.73;;;13.30;;
59263;SDS011;45030;42.720;23.344;2022-11-21T01:51:05;17.63;;;11.65;;
59263;SDS011;45030;42.720;23.344;2022-11-21T01:53:32;20.63;;;11.90;;
59263;SDS011;45030;42.720;23.344;2022-11-21T01:55:57;18.13;;;10.95;;
59263;SDS011;45030;42.720;23.344;2022-11-21T01:58:23;19.42;;;12.52;;
59263;SDS011;45030;42.720;23.344;2022-11-21T02:00:55;22.00;;;11.18;;
59263;SDS011;45030;42.720;23.344;2022-11-21T02:03:21;14.77;;;9.85;;
59263;SDS011;45030;42.720;23.344;2022-11-21T02:05:48;17.17;;;11.52;;
59263;SDS011;45030;42.720;23.344;2022-11-21T02:08:17;15.10;;;9.52;;
59263;SDS011;45030;42.720;23.344;2022-11-21T02:10:47;14.15;;;9.20;;
59263;SDS011;45030;42.720;23.344;2022-11-21T02:13:14;22.85;;;14.13;;
59263;SDS011;45030;42.720;23.344;2022-11-21T02:15:39;24.85;;;14.75;;
59263;SDS011;45030;42.720;23.344;2022-11-21T02:18:05;21.33;;;15.65;;
59263;SDS011;45030;42.720;23.344;2022-11-21T02:20:32;26.30;;;18.38;;
59263;SDS011;45030;42.720;23.344;2022-11-21T02:25:26;14.30;;;9.68;;
59263;SDS011;45030;42.720;23.344;2022-11-21T02:28:03;15.05;;;8.98;;
59263;SDS011;45030;42.720;23.344;2022-11-21T02:30:30;12.13;;;6.50;;
59263;SDS011;45030;42.720;23.344;2022-11-21T02:32:55;15.90;;;9.25;;
59263;SDS011;45030;42.720;23.344;2022-11-21T02:35:21;15.65;;;9.27;;
59263;SDS011;45030;42.720;23.344;2022-11-21T02:37:47;8.05;;;4.90;;
59263;SDS011;45030;42.720;23.344;2022-11-21T02:40:14;6.47;;;4.45;;
59263;SDS011;45030;42.720;23.344;2022-11-21T02:47:40;13.18;;;8.07;;
59263;SDS011;45030;42.720;23.344;2022-11-21T02:50:18;12.52;;;7.60;;
59263;SDS011;45030;42.720;23.344;2022-11-21T02:52:44;14.38;;;7.93;;
59263;SDS011;45030;42.720;23.344;2022-11-21T02:55:09;16.23;;;9.45;;
59263;SDS011;45030;42.720;23.344;2022-11-21T02:57:36;13.23;;;7.63;;
59263;SDS011;45030;42.720;23.344;2022-11-21T03:00:02;9.25;;;6.18;;
59263;SDS011;45030;42.720;23.344;2022-11-21T03:02:27;8.60;;;4.32;;
59263;SDS011;45030;42.720;23.344;2022-11-21T03:04:53;11.73;;;6.53;;
59263;SDS011;45030;42.720;23.344;2022-11-21T03:07:18;9.30;;;6.75;;
59263;SDS011;45030;42.720;23.344;2022-11-21T03:09:43;10.82;;;5.53;;
59263;SDS011;45030;42.720;23.344;2022-11-21T03:12:08;10.60;;;5.93;;
59263;SDS011;45030;42.720;23.344;2022-11-21T03:14:34;8.85;;;5.82;;
59263;SDS011;45030;42.720;23.344;2022-11-21T03:16:59;12.80;;;6.53;;
59263;SDS011;45030;42.720;23.344;2022-11-21T03:19:25;29.58;;;11.15;;
59263;SDS011;45030;42.720;23.344;2022-11-21T03:21:50;10.52;;;6.05;;
59263;SDS011;45030;42.720;23.344;2022-11-21T03:24:15;12.35;;;5.28;;
59263;SDS011;45030;42.720;23.344;2022-11-21T03:26:40;8.82;;;5.60;;
59263;SDS011;45030;42.720;23.344;2022-11-21T03:29:06;8.50;;;6.00;;
59263;SDS011;45030;42.720;23.344;2022-11-21T03:31:31;6.00;;;4.07;;
59263;SDS011;45030;42.720;23.344;2022-11-21T03:33:56;4.38;;;2.67;;
59263;SDS011;45030;42.720;23.344;2022-11-21T03:36:21;7.05;;;3.58;;
59263;SDS011;45030;42.720;23.344;2022-11-21T03:38:47;14.07;;;8.15;;
59263;SDS011;45030;42.720;23.344;2022-11-21T03:41:12;17.30;;;8.32;;
59263;SDS011;45030;42.720;23.344;2022-11-21T03:43:58;10.05;;;4.85;;
59263;SDS011;45030;42.720;23.344;2022-11-21T03:46:24;13.55;;;4.68;;
59263;SDS011;45030;42.720;23.344;2022-11-21T03:48:49;8.00;;;4.43;;
59263;SDS011;45030;42.720;23.344;2022-11-21T03:51:14;12.00;;;6.30;;
59263;SDS011;45030;42.720;23.344;2022-11-21T03:53:39;9.90;;;5.10;;
59263;SDS011;45030;42.720;23.344;2022-11-21T03:56:04;10.98;;;5.38;;
59263;SDS011;45030;42.720;23.344;2022-11-21T03:58:30;10.98;;;4.88;;
59263;SDS011;45030;42.720;23.344;2022-11-21T04:00:55;11.65;;;6.50;;
59263;SDS011;45030;42.720;23.344;2022-11-21T04:03:20;15.10;;;7.57;;
59263;SDS011;45030;42.720;23.344;2022-11-21T04:05:46;21.85;;;10.88;;
59263;SDS011;45030;42.720;23.344;2022-11-21T04:08:11;9.82;;;5.35;;
59263;SDS011;45030;42.720;23.344;2022-11-21T04:10:36;8.77;;;4.53;;
59263;SDS011;45030;42.720;23.344;2022-11-21T04:13:01;6.72;;;4.28;;
59263;SDS011;45030;42.720;23.344;2022-11-21T04:15:27;7.43;;;3.70;;
59263;SDS011;45030;42.720;23.344;2022-11-21T04:17:52;8.15;;;3.80;;
59263;SDS011;45030;42.720;23.344;2022-11-21T04:20:17;6.93;;;3.55;;
59263;SDS011;45030;42.720;23.344;2022-11-21T04:22:42;17.45;;;8.27;;
59263;SDS011;45030;42.720;23.344;2022-11-21T04:25:08;6.32;;;3.40;;
59263;SDS011;45030;42.720;23.344;2022-11-21T04:27:33;14.18;;;5.75;;
59263;SDS011;45030;42.720;23.344;2022-11-21T04:29:58;12.50;;;4.32;;
59263;SDS011;45030;42.720;23.344;2022-11-21T04:32:23;4.70;;;2.88;;
59263;SDS011;45030;42.720;23.344;2022-11-21T04:34:49;6.40;;;3.13;;
59263;SDS011;45030;42.720;23.344;2022-11-21T04:37:14;7.00;;;2.58;;
59263;SDS011;45030;42.720;23.344;2022-11-21T04:39:39;4.22;;;2.03;;
59263;SDS011;45030;42.720;23.344;2022-11-21T04:42:04;4.18;;;2.22;;
59263;SDS011;45030;42.720;23.344;2022-11-21T04:44:30;2.30;;;1.50;;
59263;SDS011;45030;42.720;23.344;2022-11-21T04:46:55;3.28;;;2.05;;
59263;SDS011;45030;42.720;23.344;2022-11-21T04:49:21;2.67;;;1.85;;
59263;SDS011;45030;42.720;23.344;2022-11-21T04:51:46;3.08;;;1.73;;
59263;SDS011;45030;42.720;23.344;2022-11-21T04:54:11;3.25;;;1.50;;
59263;SDS011;45030;42.720;23.344;2022-11-21T04:56:36;1.50;;;0.90;;
59263;SDS011;45030;42.720;23.344;2022-11-21T04:59:02;2.40;;;1.42;;
59263;SDS011;45030;42.720;23.344;2022-11-21T05:01:27;3.75;;;2.17;;
59263;SDS011;45030;42.720;23.344;2022-11-21T05:03:52;2.10;;;1.20;;
59263;SDS011;45030;42.720;23.344;2022-11-21T05:06:18;3.28;;;1.42;;
59263;SDS011;45030;42.720;23.344;2022-11-21T05:08:43;2.50;;;1.38;;
59263;SDS011;45030;42.720;23.344;2022-11-21T05:11:08;2.15;;;1.38;;
59263;SDS011;45030;42.720;23.344;2022-11-21T05:13:52;3.28;;;2.40;;
59263;SDS011;45030;42.720;23.344;2022-11-21T05:16:18;4.30;;;1.50;;
59263;SDS011;45030;42.720;23.344;2022-11-21T05:18:43;3.05;;;2.33;;
59263;SDS011;45030;42.720;23.344;2022-11-21T05:21:08;8.00;;;5.07;;
59263;SDS011;45030;42.720;23.344;2022-11-21T05:23:34;16.77;;;9.02;;
59263;SDS011;45030;42.720;23.344;2022-11-21T05:25:59;7.85;;;5.25;;
59263;SDS011;45030;42.720;23.344;2022-11-21T05:28:24;8.50;;;2.17;;
59263;SDS011;45030;42.720;23.344;2022-11-21T05:30:49;4.35;;;2.90;;
59263;SDS011;45030;42.720;23.344;2022-11-21T05:33:15;2.97;;;1.58;;
59263;SDS011;45030;42.720;23.344;2022-11-21T05:35:40;2.22;;;2.03;;
59263;SDS011;45030;42.720;23.344;2022-11-21T05:38:05;1.83;;;1.40;;
59263;SDS011;45030;42.720;23.344;2022-11-21T05:40:30;11.00;;;5.88;;
59263;SDS011;45030;42.720;23.344;2022-11-21T05:42:56;5.38;;;3.35;;
59263;SDS011;45030;42.720;23.344;2022-11-21T05:45:41;1.70;;;1.52;;
59263;SDS011;45030;42.720;23.344;2022-11-21T05:48:06;2.85;;;1.80;;
59263;SDS011;45030;42.720;23.344;2022-11-21T05:50:33;4.22;;;2.33;;
59263;SDS011;45030;42.720;23.344;2022-11-21T05:53:04;3.17;;;1.52;;
59263;SDS011;45030;42.720;23.344;2022-11-21T05:55:29;5.57;;;2.63;;
59263;SDS011;45030;42.720;23.344;2022-11-21T05:57:58;3.10;;;1.80;;
59263;SDS011;45030;42.720;23.344;2022-11-21T06:00:24;1.95;;;1.33;;
59263;SDS011;45030;42.720;23.344;2022-11-21T06:02:49;3.08;;;1.80;;
59263;SDS011;45030;42.720;23.344;2022-11-21T06:05:33;3.10;;;1.92;;
59263;SDS011;45030;42.720;23.344;2022-11-21T06:07:58;5.40;;;3.00;;
59263;SDS011;45030;42.720;23.344;2022-11-21T06:10:23;3.42;;;1.67;;
59263;SDS011;45030;42.720;23.344;2022-11-21T06:12:49;2.35;;;1.83;;
59263;SDS011;45030;42.720;23.344;2022-11-21T06:15:14;3.28;;;1.83;;
59263;SDS011;45030;42.720;23.344;2022-11-21T06:17:39;3.13;;;2.03;;
59263;SDS011;45030;42.720;23.344;2022-11-21T06:20:05;3.13;;;1.90;;
59263;SDS011;45030;42.720;23.344;2022-11-21T06:22:30;2.17;;;1.70;;
59263;SDS011;45030;42.720;23.344;2022-11-21T06:24:55;7.60;;;2.92;;
59263;SDS011;45030;42.720;23.344;2022-11-21T06:27:21;3.40;;;2.40;;
59263;SDS011;45030;42.720;23.344;2022-11-21T06:29:46;7.13;;;3.25;;
59263;SDS011;45030;42.720;23.344;2022-11-21T06:32:11;12.82;;;5.22;;
59263;SDS011;45030;42.720;23.344;2022-11-21T06:34:36;9.77;;;3.97;;
59263;SDS011;45030;42.720;23.344;2022-11-21T06:37:02;15.50;;;4.82;;
59263;SDS011;45030;42.720;23.344;2022-11-21T06:39:27;16.23;;;4.63;;
59263;SDS011;45030;42.720;23.344;2022-11-21T06:41:52;9.30;;;4.30;;
59263;SDS011;45030;42.720;23.344;2022-11-21T06:44:17;5.43;;;3.17;;
59263;SDS011;45030;42.720;23.344;2022-11-21T06:46:43;7.82;;;4.50;;
59263;SDS011;45030;42.720;23.344;2022-11-21T06:49:08;4.20;;;3.28;;
59263;SDS011;45030;42.720;23.344;2022-11-21T06:51:34;5.60;;;3.70;;
59263;SDS011;45030;42.720;23.344;2022-11-21T06:53:59;3.25;;;2.55;;
59263;SDS011;45030;42.720;23.344;2022-11-21T06:56:28;3.92;;;3.33;;
59263;SDS011;45030;42.720;23.344;2022-11-21T06:58:54;3.15;;;2.50;;
59263;SDS011;45030;42.720;23.344;2022-11-21T07:01:19;4.03;;;2.67;;
59263;SDS011;45030;42.720;23.344;2022-11-21T07:03:45;2.70;;;2.08;;
59263;SDS011;45030;42.720;23.344;2022-11-21T07:06:10;5.40;;;3.25;;
59263;SDS011;45030;42.720;23.344;2022-11-21T07:08:35;4.05;;;2.97;;
59263;SDS011;45030;42.720;23.344;2022-11-21T07:11:02;5.20;;;3.88;;
59263;SDS011;45030;42.720;23.344;2022-11-21T07:13:27;3.75;;;2.90;;
59263;SDS011;45030;42.720;23.344;2022-11-21T07:15:53;7.90;;;4.90;;
59263;SDS011;45030;42.720;23.344;2022-11-21T07:18:19;7.63;;;4.95;;
59263;SDS011;45030;42.720;23.344;2022-11-21T07:20:45;4.25;;;2.67;;
59263;SDS011;45030;42.720;23.344;2022-11-21T07:23:10;2.63;;;1.75;;
59263;SDS011;45030;42.720;23.344;2022-11-21T07:25:36;3.30;;;2.60;;
59263;SDS011;45030;42.720;23.344;2022-11-21T07:28:03;5.60;;;2.90;;
59263;SDS011;45030;42.720;23.344;2022-11-21T07:30:28;2.70;;;2.20;;
59263;SDS011;45030;42.720;23.344;2022-11-21T07:32:57;4.57;;;3.50;;
59263;SDS011;45030;42.720;23.344;2022-11-21T07:35:22;6.05;;;3.38;;
59263;SDS011;45030;42.720;23.344;2022-11-21T07:37:48;5.82;;;4.18;;
59263;SDS011;45030;42.720;23.344;2022-11-21T07:40:13;4.70;;;3.70;;
59263;SDS011;45030;42.720;23.344;2022-11-21T07:42:38;2.20;;;2.00;;
59263;SDS011;45030;42.720;23.344;2022-11-21T07:45:04;3.17;;;2.42;;
59263;SDS011;45030;42.720;23.344;2022-11-21T07:47:29;2.20;;;1.60;;
59263;SDS011;45030;42.720;23.344;2022-11-21T07:49:54;3.42;;;2.50;;
59263;SDS011;45030;42.720;23.344;2022-11-21T07:52:19;4.85;;;2.95;;
59263;SDS011;45030;42.720;23.344;2022-11-21T07:54:45;4.93;;;2.97;;
59263;SDS011;45030;42.720;23.344;2022-11-21T07:57:10;4.15;;;3.13;;
59263;SDS011;45030;42.720;23.344;2022-11-21T07:59:35;4.43;;;3.80;;
59263;SDS011;45030;42.720;23.344;2022-11-21T08:02:01;3.88;;;3.42;;
59263;SDS011;45030;42.720;23.344;2022-11-21T08:04:27;4.22;;;2.72;;
59263;SDS011;45030;42.720;23.344;2022-11-21T08:06:53;5.97;;;3.97;;
59263;SDS011;45030;42.720;23.344;2022-11-21T08:09:18;4.30;;;3.47;;
59263;SDS011;45030;42.720;23.344;2022-11-21T08:11:43;4.88;;;3.28;;
59263;SDS011;45030;42.720;23.344;2022-11-21T08:14:08;2.60;;;2.13;;
59263;SDS011;45030;42.720;23.344;2022-11-21T08:16:34;2.67;;;2.10;;
59263;SDS011;45030;42.720;23.344;2022-11-21T08:18:59;5.75;;;2.83;;
59263;SDS011;45030;42.720;23.344;2022-11-21T08:21:24;3.03;;;2.50;;
59263;SDS011;45030;42.720;23.344;2022-11-21T08:23:50;5.30;;;2.38;;
59263;SDS011;45030;42.720;23.344;2022-11-21T08:26:15;6.45;;;3.40;;
59263;SDS011;45030;42.720;23.344;2022-11-21T08:28:41;4.18;;;2.85;;
59263;SDS011;45030;42.720;23.344;2022-11-21T08:31:06;9.60;;;5.80;;
59263;SDS011;45030;42.720;23.344;2022-11-21T08:33:31;3.75;;;2.67;;
59263;SDS011;45030;42.720;23.344;2022-11-21T08:35:56;2.10;;;1.90;;
59263;SDS011;45030;42.720;23.344;2022-11-21T08:38:22;7.00;;;3.40;;
59263;SDS011;45030;42.720;23.344;2022-11-21T08:40:47;6.53;;;3.45;;
59263;SDS011;45030;42.720;23.344;2022-11-21T08:43:32;9.80;;;4.78;;
59263;SDS011;45030;42.720;23.344;2022-11-21T08:45:58;2.75;;;1.95;;
59263;SDS011;45030;42.720;23.344;2022-11-21T08:48:23;3.33;;;2.20;;
59263;SDS011;45030;42.720;23.344;2022-11-21T08:50:48;2.35;;;2.05;;
59263;SDS011;45030;42.720;23.344;2022-11-21T08:53:13;4.15;;;2.40;;
59263;SDS011;45030;42.720;23.344;2022-11-21T08:55:39;4.93;;;2.58;;
59263;SDS011;45030;42.720;23.344;2022-11-21T08:58:04;4.53;;;2.72;;
59263;SDS011;45030;42.720;23.344;2022-11-21T09:00:29;9.60;;;4.82;;
59263;SDS011;45030;42.720;23.344;2022-11-21T09:02:54;11.13;;;4.00;;
59263;SDS011;45030;42.720;23.344;2022-11-21T09:05:20;5.60;;;4.00;;
59263;SDS011;45030;42.720;23.344;2022-11-21T09:07:45;7.05;;;3.28;;
59263;SDS011;45030;42.720;23.344;2022-11-21T09:10:10;9.00;;;3.88;;
59263;SDS011;45030;42.720;23.344;2022-11-21T09:12:36;11.68;;;5.95;;
59263;SDS011;45030;42.720;23.344;2022-11-21T09:15:01;12.57;;;5.55;;
59263;SDS011;45030;42.720;23.344;2022-11-21T09:17:45;11.40;;;5.32;;
59263;SDS011;45030;42.720;23.344;2022-11-21T09:20:31;10.30;;;4.63;;
59263;SDS011;45030;42.720;23.344;2022-11-21T09:23:02;11.95;;;6.78;;
59263;SDS011;45030;42.720;23.344;2022-11-21T09:25:27;8.82;;;6.35;;
59263;SDS011;45030;42.720;23.344;2022-11-21T09:27:52;5.03;;;3.67;;
59263;SDS011;45030;42.720;23.344;2022-11-21T09:30:18;9.65;;;3.90;;
59263;SDS011;45030;42.720;23.344;2022-11-21T09:32:43;6.45;;;3.53;;
59263;SDS011;45030;42.720;23.344;2022-11-21T09:35:08;6.57;;;3.70;;
59263;SDS011;45030;42.720;23.344;2022-11-21T09:37:36;8.70;;;5.13;;
59263;SDS011;45030;42.720;23.344;2022-11-21T09:40:02;8.85;;;4.15;;
59263;SDS011;45030;42.720;23.344;2022-11-21T09:47:46;2.85;;;2.58;;
59263;SDS011;45030;42.720;23.344;2022-11-21T09:52:39;5.32;;;2.92;;
59263;SDS011;45030;42.720;23.344;2022-11-21T09:55:27;3.80;;;3.40;;
59263;SDS011;45030;42.720;23.344;2022-11-21T09:57:51;5.28;;;4.25;;
59263;SDS011;45030;42.720;23.344;2022-11-21T10:00:20;8.65;;;5.45;;
59263;SDS011;45030;42.720;23.344;2022-11-21T10:02:46;6.07;;;3.25;;
59263;SDS011;45030;42.720;23.344;2022-11-21T10:05:12;6.07;;;3.50;;
59263;SDS011;45030;42.720;23.344;2022-11-21T10:07:37;4.00;;;3.58;;
59263;SDS011;45030;42.720;23.344;2022-11-21T10:25:54;7.82;;;5.90;;
59263;SDS011;45030;42.720;23.344;2022-11-21T10:28:22;7.50;;;4.82;;
59263;SDS011;45030;42.720;23.344;2022-11-21T10:30:52;6.78;;;5.45;;
59263;SDS011;45030;42.720;23.344;2022-11-21T10:33:36;7.20;;;5.15;;
59263;SDS011;45030;42.720;23.344;2022-11-21T10:38:42;7.97;;;4.97;;
59263;SDS011;45030;42.720;23.344;2022-11-21T10:43:34;5.47;;;3.20;;
59263;SDS011;45030;42.720;23.344;2022-11-21T10:46:21;10.98;;;5.10;;
59263;SDS011;45030;42.720;23.344;2022-11-21T10:48:49;5.85;;;4.13;;
59263;SDS011;45030;42.720;23.344;2022-11-21T10:53:42;6.30;;;3.50;;
59263;SDS011;45030;42.720;23.344;2022-11-21T10:56:26;11.00;;;6.00;;
59263;SDS011;45030;42.720;23.344;2022-11-21T10:58:52;5.00;;;3.63;;
59263;SDS011;45030;42.720;23.344;2022-11-21T11:03:47;11.85;;;5.28;;
59263;SDS011;45030;42.720;23.344;2022-11-21T11:06:12;11.20;;;5.43;;
59263;SDS011;45030;42.720;23.344;2022-11-21T11:08:58;17.23;;;8.38;;
59263;SDS011;45030;42.720;23.344;2022-11-21T11:11:23;5.07;;;3.03;;
59263;SDS011;45030;42.720;23.344;2022-11-21T11:16:21;9.10;;;4.25;;
59263;SDS011;45030;42.720;23.344;2022-11-21T11:21:27;3.55;;;3.00;;
59263;SDS011;45030;42.720;23.344;2022-11-21T11:23:53;4.22;;;2.33;;
59263;SDS011;45030;42.720;23.344;2022-11-21T11:26:20;4.10;;;3.22;;
59263;SDS011;45030;42.720;23.344;2022-11-21T11:28:46;2.75;;;2.47;;
59263;SDS011;45030;42.720;23.344;2022-11-21T11:31:11;3.53;;;3.10;;
59263;SDS011;45030;42.720;23.344;2022-11-21T11:33:38;3.22;;;2.58;;
59263;SDS011;45030;42.720;23.344;2022-11-21T11:38:39;4.35;;;3.50;;
59263;SDS011;45030;42.720;23.344;2022-11-21T11:41:13;3.20;;;2.90;;
59263;SDS011;45030;42.720;23.344;2022-11-21T11:49:44;3.63;;;3.13;;
59263;SDS011;45030;42.720;23.344;2022-11-21T11:52:31;3.80;;;3.22;;
59263;SDS011;45030;42.720;23.344;2022-11-21T11:54:59;5.13;;;3.78;;
59263;SDS011;45030;42.720;23.344;2022-11-21T11:57:26;2.65;;;2.40;;
59263;SDS011;45030;42.720;23.344;2022-11-21T12:02:40;6.40;;;4.43;;
59263;SDS011;45030;42.720;23.344;2022-11-21T12:05:08;7.10;;;4.30;;
59263;SDS011;45030;42.720;23.344;2022-11-21T12:07:37;3.88;;;3.17;;
59263;SDS011;45030;42.720;23.344;2022-11-21T12:10:11;3.85;;;3.10;;
59263;SDS011;45030;42.720;23.344;2022-11-21T12:12:37;9.38;;;3.83;;
59263;SDS011;45030;42.720;23.344;2022-11-21T12:23:30;2.72;;;2.33;;
59263;SDS011;45030;42.720;23.344;2022-11-21T12:37:22;3.70;;;2.97;;
59263;SDS011;45030;42.720;23.344;2022-11-21T12:50:48;6.88;;;4.53;;
59263;SDS011;45030;42.720;23.344;2022-11-21T12:53:39;6.22;;;4.00;;
59263;SDS011;45030;42.720;23.344;2022-11-21T12:56:32;5.05;;;3.58;;
59263;SDS011;45030;42.720;23.344;2022-11-21T12:59:02;4.13;;;2.90;;
59263;SDS011;45030;42.720;23.344;2022-11-21T13:01:38;2.90;;;2.28;;
59263;SDS011;45030;42.720;23.344;2022-11-21T13:04:08;2.88;;;2.20;;
59263;SDS011;45030;42.720;23.344;2022-11-21T13:06:38;5.22;;;3.33;;
59263;SDS011;45030;42.720;23.344;2022-11-21T13:09:06;4.28;;;3.22;;
59263;SDS011;45030;42.720;23.344;2022-11-21T13:22:02;4.68;;;3.30;;
59263;SDS011;45030;42.720;23.344;2022-11-21T13:27:08;5.13;;;4.25;;
59263;SDS011;45030;42.720;23.344;2022-11-21T13:29:34;4.05;;;3.65;;
59263;SDS011;45030;42.720;23.344;2022-11-21T13:32:19;4.88;;;3.95;;
59263;SDS011;45030;42.720;23.344;2022-11-21T13:34:44;3.13;;;2.85;;
59263;SDS011;45030;42.720;23.344;2022-11-21T13:37:10;9.50;;;6.13;;
59263;SDS011;45030;42.720;23.344;2022-11-21T13:39:57;8.75;;;4.72;;
59263;SDS011;45030;42.720;23.344;2022-11-21T13:43:12;3.95;;;3.47;;
59263;SDS011;45030;42.720;23.344;2022-11-21T13:45:36;5.78;;;4.85;;
59263;SDS011;45030;42.720;23.344;2022-11-21T13:48:03;6.68;;;4.57;;
59263;SDS011;45030;42.720;23.344;2022-11-21T13:52:59;6.00;;;4.07;;
59263;SDS011;45030;42.720;23.344;2022-11-21T13:58:01;6.03;;;3.80;;
59263;SDS011;45030;42.720;23.344;2022-11-21T14:06:07;7.65;;;4.03;;
59263;SDS011;45030;42.720;23.344;2022-11-21T14:08:37;9.15;;;5.15;;
59263;SDS011;45030;42.720;23.344;2022-11-21T14:11:28;5.22;;;3.83;;
59263;SDS011;45030;42.720;23.344;2022-11-21T14:13:56;6.95;;;4.50;;
59263;SDS011;45030;42.720;23.344;2022-11-21T14:16:23;3.90;;;3.50;;
59263;SDS011;45030;42.720;23.344;2022-11-21T14:18:50;7.30;;;4.60;;
59263;SDS011;45030;42.720;23.344;2022-11-21T14:21:20;5.70;;;4.15;;
59263;SDS011;45030;42.720;23.344;2022-11-21T14:23:46;7.82;;;3.88;;
59263;SDS011;45030;42.720;23.344;2022-11-21T14:26:15;5.53;;;4.63;;
59263;SDS011;45030;42.720;23.344;2022-11-21T14:28:43;7.10;;;4.55;;
59263;SDS011;45030;42.720;23.344;2022-11-21T14:31:10;4.93;;;4.15;;
59263;SDS011;45030;42.720;23.344;2022-11-21T14:33:54;6.00;;;4.60;;
59263;SDS011;45030;42.720;23.344;2022-11-21T14:43:39;5.30;;;3.78;;
59263;SDS011;45030;42.720;23.344;2022-11-21T14:46:11;10.07;;;5.60;;
59263;SDS011;45030;42.720;23.344;2022-11-21T14:48:36;6.85;;;5.10;;
59263;SDS011;45030;42.720;23.344;2022-11-21T14:51:02;7.65;;;5.65;;
59263;SDS011;45030;42.720;23.344;2022-11-21T14:53:27;10.88;;;4.97;;
59263;SDS011;45030;42.720;23.344;2022-11-21T14:55:52;13.43;;;7.25;;
59263;SDS011;45030;42.720;23.344;2022-11-21T14:58:18;14.73;;;8.45;;
59263;SDS011;45030;42.720;23.344;2022-11-21T15:01:00;12.50;;;7.47;;
59263;SDS011;45030;42.720;23.344;2022-11-21T15:03:25;13.20;;;8.93;;
59263;SDS011;45030;42.720;23.344;2022-11-21T15:05:57;8.32;;;6.00;;
59263;SDS011;45030;42.720;23.344;2022-11-21T15:08:23;8.77;;;4.95;;
59263;SDS011;45030;42.720;23.344;2022-11-21T15:10:48;12.70;;;7.82;;
59263;SDS011;45030;42.720;23.344;2022-11-21T15:13:14;9.98;;;6.97;;
59263;SDS011;45030;42.720;23.344;2022-11-21T15:18:06;6.43;;;4.57;;
59263;SDS011;45030;42.720;23.344;2022-11-21T15:20:35;9.52;;;6.65;;
59263;SDS011;45030;42.720;23.344;2022-11-21T15:23:01;13.13;;;6.30;;
59263;SDS011;45030;42.720;23.344;2022-11-21T15:25:27;8.73;;;5.97;;
59263;SDS011;45030;42.720;23.344;2022-11-21T15:30:26;6.18;;;4.57;;
59263;SDS011;45030;42.720;23.344;2022-11-21T15:35:45;9.90;;;7.45;;
59263;SDS011;45030;42.720;23.344;2022-11-21T15:40:55;16.00;;;9.43;;
59263;SDS011;45030;42.720;23.344;2022-11-21T15:48:45;16.38;;;9.00;;
59263;SDS011;45030;42.720;23.344;2022-11-21T15:51:11;22.30;;;11.10;;
59263;SDS011;45030;42.720;23.344;2022-11-21T15:53:37;12.88;;;6.70;;
59263;SDS011;45030;42.720;23.344;2022-11-21T15:56:03;18.13;;;8.00;;
59263;SDS011;45030;42.720;23.344;2022-11-21T15:58:28;8.02;;;6.38;;
59263;SDS011;45030;42.720;23.344;2022-11-21T16:00:53;8.35;;;7.10;;
59263;SDS011;45030;42.720;23.344;2022-11-21T16:03:19;11.15;;;6.85;;
59263;SDS011;45030;42.720;23.344;2022-11-21T16:05:44;8.70;;;6.70;;
59263;SDS011;45030;42.720;23.344;2022-11-21T16:08:09;9.75;;;7.50;;
59263;SDS011;45030;42.720;23.344;2022-11-21T16:10:34;10.05;;;6.80;;
59263;SDS011;45030;42.720;23.344;2022-11-21T16:13:00;10.85;;;7.47;;
59263;SDS011;45030;42.720;23.344;2022-11-21T16:15:25;13.93;;;9.75;;
59263;SDS011;45030;42.720;23.344;2022-11-21T16:17:51;13.23;;;9.00;;
59263;SDS011;45030;42.720;23.344;2022-11-21T16:20:16;11.82;;;8.95;;
59263;SDS011;45030;42.720;23.344;2022-11-21T16:22:41;20.05;;;11.15;;
59263;SDS011;45030;42.720;23.344;2022-11-21T16:25:08;13.93;;;9.35;;
59263;SDS011;45030;42.720;23.344;2022-11-21T16:27:33;14.35;;;8.63;;
59263;SDS011;45030;42.720;23.344;2022-11-21T16:29:59;10.52;;;7.32;;
59263;SDS011;45030;42.720;23.344;2022-11-21T16:32:24;13.48;;;8.07;;
59263;SDS011;45030;42.720;23.344;2022-11-21T16:34:50;20.65;;;10.07;;
59263;SDS011;45030;42.720;23.344;2022-11-21T16:37:15;14.32;;;9.32;;
59263;SDS011;45030;42.720;23.344;2022-11-21T16:39:41;12.90;;;8.63;;
59263;SDS011;45030;42.720;23.344;2022-11-21T16:42:08;9.60;;;7.05;;
59263;SDS011;45030;42.720;23.344;2022-11-21T16:44:33;13.55;;;8.65;;
59263;SDS011;45030;42.720;23.344;2022-11-21T16:46:59;12.18;;;8.30;;
59263;SDS011;45030;42.720;23.344;2022-11-21T16:49:24;14.25;;;9.05;;